Terminal Aerodrome Forecast
Issued by NWS Sioux Falls, SD

Home | Current Version | Previous Version | Text Only | Print | Product List | Glossary On
Versions: 1 2 3 4 5 6 7 8 9 10 11 12 13 14 15
000
FTUS43 KFSD 192326
TAFFSD
TAF
KFSD 192326Z 2000/2024 18012KT P6SM OVC007
     FM200500 17004KT 4SM BR OVC006
     FM201200 17005KT 2SM BR OVC004
     FM201500 17007KT 4SM BR OVC006
     FM201700 17007KT P6SM OVC008=

USA.gov is the U.S. government's official web portal to all federal, state and local government web resources and services.